createdAt,value
2022-10-15T00:00:08.556Z,0.0
2022-10-15T00:05:08.416Z,0.0
2022-10-15T00:10:08.169Z,0.0
2022-10-15T00:15:07.892Z,0.0
2022-10-15T00:20:08.568Z,0.0
2022-10-15T00:25:08.321Z,0.0
2022-10-15T00:30:08.026Z,0.0
2022-10-15T00:35:07.751Z,0.0
2022-10-15T00:40:08.489Z,0.0
2022-10-15T00:45:08.168Z,0.0
2022-10-15T00:50:07.879Z,0.0
2022-10-15T00:55:08.584Z,0.0
2022-10-15T01:00:08.296Z,0.0
2022-10-15T01:05:07.997Z,0.0
2022-10-15T01:10:07.697Z,0.0
2022-10-15T01:15:08.426Z,0.0
2022-10-15T01:20:08.127Z,0.0
2022-10-15T01:25:07.888Z,0.0
2022-10-15T01:30:18.623Z,0.0
2022-10-15T01:35:08.289Z,0.0
2022-10-15T01:40:07.976Z,0.0
2022-10-15T01:45:07.647Z,0.0
2022-10-15T01:50:08.338Z,0.0
2022-10-15T01:55:08.033Z,0.0
2022-10-15T02:00:07.714Z,0.0
2022-10-15T02:05:08.424Z,0.0
2022-10-15T02:10:08.124Z,0.0
2022-10-15T02:15:07.854Z,0.0
2022-10-15T02:20:08.552Z,0.0
2022-10-15T02:25:08.246Z,0.0
2022-10-15T02:30:07.992Z,0.0
2022-10-15T02:35:07.729Z,0.0
2022-10-15T02:40:08.429Z,0.0
2022-10-15T02:45:08.282Z,0.0
2022-10-15T02:50:08.010Z,0.0
2022-10-15T02:55:07.714Z,0.0
2022-10-15T03:00:08.413Z,0.0
2022-10-15T03:05:08.141Z,0.0
2022-10-15T03:10:07.924Z,0.0
2022-10-15T03:15:08.625Z,0.0
2022-10-15T03:20:08.368Z,0.0
2022-10-15T03:25:08.069Z,0.0
2022-10-15T03:30:07.768Z,0.0
2022-10-15T03:35:08.503Z,0.0
2022-10-15T03:40:11.961Z,0.0
2022-10-15T03:45:08.358Z,0.0
2022-10-15T03:50:08.043Z,0.0
2022-10-15T03:55:07.752Z,0.0
2022-10-15T04:00:08.466Z,0.0
2022-10-15T04:05:02.466Z,0.0
2022-10-15T04:10:02.654Z,0.0
2022-10-15T04:15:02.601Z,0.0
2022-10-15T04:20:03.795Z,0.0
2022-10-15T04:25:02.594Z,0.0
2022-10-15T04:30:02.865Z,0.0
2022-10-15T04:35:03.002Z,0.0
2022-10-15T04:40:01.990Z,0.0
2022-10-15T04:45:01.954Z,0.0
2022-10-15T04:50:02.250Z,0.0
2022-10-15T04:55:02.251Z,0.0
2022-10-15T05:00:02.397Z,1.1
2022-10-15T05:05:02.344Z,1.1
2022-10-15T05:10:02.445Z,0.0
2022-10-15T05:15:02.451Z,0.0
2022-10-15T05:20:02.558Z,0.0
2022-10-15T05:25:02.725Z,0.0
2022-10-15T05:30:03.006Z,1.2
2022-10-15T05:35:02.147Z,1.2
2022-10-15T05:40:02.166Z,1.3
2022-10-15T05:45:02.145Z,1.0
2022-10-15T05:50:02.106Z,1.0
2022-10-15T05:55:02.117Z,1.0
2022-10-15T06:00:02.069Z,1.0
2022-10-15T06:05:01.908Z,0.0
2022-10-15T06:10:02.803Z,0.0
2022-10-15T06:15:02.590Z,0.0
2022-10-15T06:20:02.514Z,0.0
2022-10-15T06:25:02.474Z,1.8
2022-10-15T06:30:02.295Z,1.8
2022-10-15T06:35:02.163Z,1.8
2022-10-15T06:40:02.349Z,1.6
2022-10-15T06:45:02.178Z,1.6
2022-10-15T06:50:02.537Z,1.6
2022-10-15T06:55:02.711Z,1.6
2022-10-15T07:00:02.641Z,2.7
2022-10-15T07:05:02.578Z,2.7
2022-10-15T07:10:02.713Z,1.4
2022-10-15T07:15:02.585Z,1.4
2022-10-15T07:20:03.199Z,1.3
2022-10-15T07:25:02.113Z,1.3
2022-10-15T07:30:02.018Z,1.3
2022-10-15T07:35:11.765Z,1.3
2022-10-15T07:40:03.021Z,1.3
2022-10-15T07:45:01.922Z,1.3
2022-10-15T07:50:02.938Z,1.1
2022-10-15T07:55:03.191Z,1.1
2022-10-15T08:00:02.273Z,0.0
2022-10-15T08:05:02.191Z,0.0
2022-10-15T08:10:02.166Z,0.0
2022-10-15T08:15:02.748Z,0.0
2022-10-15T08:20:02.873Z,1.5
2022-10-15T08:25:02.942Z,1.5
2022-10-15T08:30:02.730Z,0.0
2022-10-15T08:35:02.542Z,0.0
2022-10-15T08:40:02.366Z,0.0
2022-10-15T08:45:02.495Z,0.0
2022-10-15T08:50:02.311Z,0.0
2022-10-15T08:55:02.252Z,0.0
2022-10-15T09:00:02.068Z,0.0
2022-10-15T09:05:02.050Z,0.0
2022-10-15T09:10:02.176Z,0.0
2022-10-15T09:15:02.233Z,0.0
2022-10-15T09:20:02.244Z,0.0
2022-10-15T09:25:02.271Z,0.0
2022-10-15T09:30:02.188Z,0.0
2022-10-15T09:35:02.081Z,0.0
2022-10-15T09:40:01.942Z,0.0
2022-10-15T09:45:02.077Z,0.0
2022-10-15T09:50:02.128Z,0.0
2022-10-15T09:55:02.076Z,0.0
2022-10-15T10:00:02.176Z,0.0
2022-10-15T10:05:04.242Z,0.0
2022-10-15T10:10:03.025Z,0.0
2022-10-15T10:15:02.108Z,0.0
2022-10-15T10:20:12.050Z,1.7
2022-10-15T10:25:02.066Z,0.0
2022-10-15T10:30:02.365Z,1.1
2022-10-15T10:35:02.293Z,0.0
2022-10-15T10:40:02.646Z,0.0
2022-10-15T10:45:02.865Z,0.0
2022-10-15T10:50:01.974Z,0.0
2022-10-15T10:55:02.530Z,1.1
2022-10-15T11:00:02.694Z,0.8
2022-10-15T11:05:02.641Z,0.0
2022-10-15T11:10:02.691Z,0.0
2022-10-15T11:15:02.786Z,1.1
2022-10-15T11:20:35.238Z,1.0
2022-10-15T11:25:07.050Z,0.0
2022-10-15T11:30:02.388Z,1.3
2022-10-15T11:35:02.227Z,1.1
2022-10-15T11:40:02.197Z,1.8
2022-10-15T11:45:01.911Z,0.0
2022-10-15T11:50:02.153Z,1.1
2022-10-15T11:55:02.096Z,1.9
2022-10-15T12:00:02.591Z,1.8
2022-10-15T12:05:12.509Z,1.0
2022-10-15T12:10:02.605Z,2.2
2022-10-15T12:15:02.888Z,1.5
2022-10-15T12:20:02.958Z,3.5
2022-10-15T12:25:01.909Z,1.9
2022-10-15T12:30:02.855Z,2.8
2022-10-15T12:35:02.724Z,1.8
2022-10-15T12:40:02.849Z,2.4
2022-10-15T12:45:03.140Z,1.7
2022-10-15T12:50:02.311Z,2.3
2022-10-15T12:55:02.835Z,2.9
2022-10-15T13:00:01.905Z,2.1
2022-10-15T13:05:02.965Z,2.9
2022-10-15T13:10:01.995Z,2.2
2022-10-15T13:15:02.697Z,2.7
2022-10-15T13:20:02.765Z,2.8
2022-10-15T13:25:02.814Z,3.6
2022-10-15T13:30:02.855Z,1.9
2022-10-15T13:35:02.939Z,2.7
2022-10-15T13:40:07.533Z,1.7
2022-10-15T13:45:02.523Z,3.5
2022-10-15T13:50:12.500Z,2.2
2022-10-15T13:55:02.464Z,2.2
2022-10-15T14:00:02.527Z,3.2
2022-10-15T14:05:02.418Z,3.2
2022-10-15T14:10:02.324Z,3.4
2022-10-15T14:15:02.642Z,3.4
2022-10-15T14:20:25.751Z,2.7
2022-10-15T14:25:02.705Z,2.7
2022-10-15T14:30:02.627Z,3.5
2022-10-15T14:35:04.179Z,3.5
2022-10-15T14:40:02.121Z,1.4
2022-10-15T14:45:02.292Z,1.4
2022-10-15T14:50:02.488Z,3.4
2022-10-15T14:55:08.276Z,3.4
2022-10-15T15:00:02.770Z,3.8
2022-10-15T15:05:02.837Z,3.8
2022-10-15T15:10:02.698Z,4.3
2022-10-15T15:15:02.644Z,4.3
2022-10-15T15:25:02.475Z,2.6
2022-10-15T15:30:02.706Z,3.2
2022-10-15T15:35:02.769Z,3.2
2022-10-15T15:40:02.584Z,3.2
2022-10-15T15:45:02.701Z,3.2
2022-10-15T15:50:02.659Z,2.9
2022-10-15T15:55:02.753Z,2.9
2022-10-15T16:00:02.956Z,2.5
2022-10-15T16:05:01.988Z,2.5
2022-10-15T16:10:02.162Z,2.2
2022-10-15T16:15:02.240Z,2.2
2022-10-15T16:20:02.413Z,2.2
2022-10-15T16:25:02.505Z,2.2
2022-10-15T16:30:03.259Z,2.4
2022-10-15T16:35:02.467Z,2.4
2022-10-15T16:40:02.348Z,1.0
2022-10-15T16:45:02.945Z,1.0
2022-10-15T16:50:03.021Z,1.9
2022-10-15T16:55:01.997Z,1.9
2022-10-15T17:00:02.049Z,0.0
2022-10-15T17:05:02.889Z,0.0
2022-10-15T17:10:02.789Z,0.0
2022-10-15T17:15:02.746Z,0.0
2022-10-15T17:20:02.888Z,0.0
2022-10-15T17:25:02.970Z,0.0
2022-10-15T17:30:01.922Z,0.0
2022-10-15T17:35:04.317Z,0.0
2022-10-15T17:40:02.644Z,0.0
2022-10-15T17:45:02.779Z,0.0
2022-10-15T17:50:02.833Z,1.1
2022-10-15T17:55:02.690Z,1.1
2022-10-15T18:00:02.455Z,0.0
2022-10-15T18:05:02.399Z,0.0
2022-10-15T18:10:02.307Z,0.0
2022-10-15T18:15:02.153Z,0.0
2022-10-15T18:20:01.957Z,0.0
2022-10-15T18:25:01.704Z,0.0
2022-10-15T18:30:02.424Z,0.0
2022-10-15T18:35:02.211Z,0.0
2022-10-15T18:40:02.088Z,0.0
2022-10-15T18:45:01.911Z,0.0
2022-10-15T18:50:02.774Z,0.0
2022-10-15T18:55:02.696Z,0.0
2022-10-15T19:00:02.737Z,0.0
2022-10-15T19:05:02.559Z,0.0
2022-10-15T19:10:02.458Z,0.0
2022-10-15T19:15:02.300Z,0.0
2022-10-15T19:20:02.141Z,0.0
2022-10-15T19:25:01.879Z,0.0
2022-10-15T19:30:02.629Z,0.0
2022-10-15T19:35:02.364Z,0.0
2022-10-15T19:40:02.085Z,0.0
2022-10-15T19:45:01.824Z,0.0
2022-10-15T19:50:02.565Z,0.0
2022-10-15T19:55:02.385Z,0.0
2022-10-15T20:00:02.230Z,1.0
2022-10-15T20:05:01.992Z,1.0
2022-10-15T20:10:01.865Z,1.5
2022-10-15T20:15:02.733Z,1.5
2022-10-15T20:20:02.584Z,1.2
2022-10-15T20:25:02.384Z,1.2
2022-10-15T20:30:02.186Z,1.4
2022-10-15T20:35:02.029Z,1.4
2022-10-15T20:40:01.881Z,1.9
2022-10-15T20:45:02.752Z,1.9
2022-10-15T20:50:02.594Z,1.6
2022-10-15T20:55:02.572Z,1.6
2022-10-15T21:00:02.405Z,1.4
2022-10-15T21:05:02.119Z,1.4
2022-10-15T21:10:02.011Z,2.1
2022-10-15T21:15:01.776Z,2.1
2022-10-15T21:20:02.625Z,1.4
2022-10-15T21:25:02.474Z,1.4
2022-10-15T21:30:02.285Z,0.0
2022-10-15T21:35:14.924Z,0.0
2022-10-15T21:40:08.683Z,1.4
2022-10-15T21:45:08.368Z,1.4
2022-10-15T21:50:08.052Z,1.9
2022-10-15T21:55:07.752Z,1.9
2022-10-15T22:00:08.518Z,2.4
2022-10-15T22:05:08.259Z,2.4
2022-10-15T22:10:07.996Z,2.1
2022-10-15T22:15:07.709Z,2.1
2022-10-15T22:20:08.433Z,2.0
2022-10-15T22:25:08.119Z,2.0
2022-10-15T22:30:07.836Z,1.6
2022-10-15T22:35:08.549Z,1.6
2022-10-15T22:40:08.225Z,1.2
2022-10-15T22:45:07.919Z,1.2
2022-10-15T22:50:08.664Z,1.2
2022-10-15T22:55:08.357Z,1.2
2022-10-15T23:01:01.324Z,2.1
2022-10-15T23:05:08.107Z,2.1
2022-10-15T23:10:07.843Z,1.1
2022-10-15T23:15:08.511Z,1.1
2022-10-15T23:20:08.225Z,0.0
2022-10-15T23:25:07.908Z,0.0
2022-10-15T23:30:21.051Z,1.2
2022-10-15T23:35:07.950Z,1.2
2022-10-15T23:40:07.701Z,0.0
2022-10-15T23:45:08.443Z,0.0
2022-10-15T23:50:08.130Z,1.0
2022-10-15T23:55:07.808Z,1.0
